createdAt,value
2022-08-14T00:00:26.740Z,91.10
2022-08-14T00:03:31.183Z,92.20
2022-08-14T00:06:28.334Z,92.80
2022-08-14T00:09:08.057Z,93.60
2022-08-14T00:11:56.959Z,94.10
2022-08-14T00:14:44.484Z,94.60
2022-08-14T00:17:34.813Z,95.20
2022-08-14T00:20:31.084Z,95.90
2022-08-14T00:23:17.319Z,96.40
2022-08-14T00:26:06.591Z,96.80
2022-08-14T00:28:54.482Z,97.50
2022-08-14T00:31:45.771Z,98.40
2022-08-14T00:34:37.663Z,99.20
2022-08-14T00:37:20.062Z,99.90
2022-08-14T00:40:27.643Z,99.90
2022-08-14T00:42:58.240Z,99.90
2022-08-14T00:45:52.536Z,99.90
2022-08-14T00:48:38.245Z,99.90
2022-08-14T00:51:25.664Z,99.90
2022-08-14T00:54:21.496Z,99.90
2022-08-14T00:57:06.028Z,99.90
2022-08-14T00:59:53.555Z,99.90
2022-08-14T01:02:44.272Z,99.90
2022-08-14T01:05:41.768Z,99.90
2022-08-14T01:08:51.495Z,99.90
2022-08-14T01:11:19.541Z,99.90
2022-08-14T01:14:25.202Z,99.90
2022-08-14T01:16:55.573Z,99.90
2022-08-14T01:20:01.345Z,99.90
2022-08-14T01:22:51.413Z,99.90
2022-08-14T01:25:40.166Z,99.90
2022-08-14T01:28:46.601Z,99.90
2022-08-14T01:31:19.741Z,99.90
2022-08-14T01:35:17.180Z,99.90
2022-08-14T01:36:57.470Z,99.90
2022-08-14T01:39:45.431Z,99.90
2022-08-14T01:42:36.199Z,99.90
2022-08-14T01:45:25.580Z,99.90
2022-08-14T01:48:13.327Z,99.90
2022-08-14T01:51:03.662Z,99.90
2022-08-14T01:53:55.632Z,99.90
2022-08-14T01:56:44.712Z,99.90
2022-08-14T01:59:37.489Z,99.90
2022-08-14T02:02:24.123Z,99.90
2022-08-14T02:05:14.036Z,99.90
2022-08-14T02:08:09.847Z,99.90
2022-08-14T02:10:52.371Z,99.90
2022-08-14T02:13:40.220Z,99.90
2022-08-14T02:16:33.460Z,99.90
2022-08-14T02:19:27.163Z,99.90
2022-08-14T02:22:16.336Z,99.90
2022-08-14T02:25:05.739Z,99.90
2022-08-14T02:28:23.428Z,99.90
2022-08-14T02:30:44.569Z,99.90
2022-08-14T02:33:33.551Z,99.90
2022-08-14T02:37:05.096Z,99.90
2022-08-14T02:39:11.868Z,99.90
2022-08-14T02:42:01.053Z,99.90
2022-08-14T02:44:50.084Z,99.90
2022-08-14T02:47:39.073Z,99.90
2022-08-14T02:50:28.197Z,99.90
2022-08-14T02:53:17.097Z,99.90
2022-08-14T02:56:29.546Z,99.90
2022-08-14T02:58:55.649Z,99.90
2022-08-14T03:01:50.954Z,99.90
2022-08-14T03:04:31.935Z,99.90
2022-08-14T03:07:20.171Z,99.90
2022-08-14T03:10:28.037Z,99.90
2022-08-14T03:12:59.083Z,99.90
2022-08-14T03:15:50.929Z,99.90
2022-08-14T03:18:41.526Z,99.90
2022-08-14T03:21:34.293Z,99.90
2022-08-14T03:24:23.759Z,99.90
2022-08-14T03:27:12.770Z,99.90
2022-08-14T03:30:00.407Z,99.90
2022-08-14T03:32:49.249Z,99.90
2022-08-14T03:36:05.699Z,99.90
2022-08-14T03:39:13.788Z,99.90
2022-08-14T03:41:25.467Z,99.90
2022-08-14T03:45:27.428Z,99.90
2022-08-14T03:47:03.178Z,99.90
2022-08-14T03:49:50.605Z,99.90
2022-08-14T03:52:40.826Z,99.90
2022-08-14T03:55:28.665Z,99.90
2022-08-14T03:58:23.813Z,99.90
2022-08-14T04:01:07.010Z,99.90
2022-08-14T04:03:58.384Z,99.90
2022-08-14T04:06:48.541Z,99.90
2022-08-14T04:09:35.322Z,99.90
2022-08-14T04:12:26.467Z,99.90
2022-08-14T04:15:14.994Z,99.90
2022-08-14T04:18:08.498Z,99.90
2022-08-14T04:20:58.113Z,99.90
2022-08-14T04:23:49.062Z,99.90
2022-08-14T04:26:41.989Z,99.90
2022-08-14T04:29:26.034Z,99.90
2022-08-14T04:33:00.248Z,99.90
2022-08-14T04:35:07.515Z,99.90
2022-08-14T04:38:35.980Z,99.90
2022-08-14T04:41:18.743Z,99.90
2022-08-14T04:44:07.423Z,99.90
2022-08-14T04:47:14.879Z,99.90
2022-08-14T04:50:04.497Z,99.90
2022-08-14T04:52:53.987Z,99.90
2022-08-14T04:55:42.878Z,99.90
2022-08-14T04:58:33.820Z,99.90
2022-08-14T05:01:21.083Z,99.90
2022-08-14T05:04:08.762Z,99.90
2022-08-14T05:06:57.711Z,99.90
2022-08-14T05:09:48.029Z,99.90
2022-08-14T05:13:12.655Z,99.90
2022-08-14T05:15:22.968Z,99.90
2022-08-14T05:18:17.298Z,99.90
2022-08-14T05:22:00.241Z,99.90
2022-08-14T05:23:56.497Z,99.90
2022-08-14T05:26:46.192Z,99.90
2022-08-14T05:29:35.215Z,99.90
2022-08-14T05:32:27.440Z,99.90
2022-08-14T05:35:12.996Z,99.90
2022-08-14T05:38:10.713Z,99.90
2022-08-14T05:40:53.013Z,99.90
2022-08-14T05:43:42.744Z,99.90
2022-08-14T05:46:31.956Z,99.90
2022-08-14T05:49:20.614Z,99.90
2022-08-14T05:52:09.750Z,99.90
2022-08-14T05:54:58.117Z,99.90
2022-08-14T05:57:51.180Z,99.90
2022-08-14T06:00:42.164Z,99.90
2022-08-14T06:03:29.454Z,99.90
2022-08-14T06:06:18.620Z,99.90
2022-08-14T06:09:09.690Z,99.90
2022-08-14T06:11:57.702Z,99.90
2022-08-14T06:14:45.220Z,99.90
2022-08-14T06:17:46.348Z,99.90
2022-08-14T06:20:25.083Z,99.90
2022-08-14T06:23:12.547Z,99.90
2022-08-14T06:26:01.606Z,99.90
2022-08-14T06:28:51.989Z,99.90
2022-08-14T06:31:38.318Z,99.90
2022-08-14T06:35:04.466Z,99.90
2022-08-14T06:37:17.158Z,99.90
2022-08-14T06:40:04.975Z,99.90
2022-08-14T06:42:52.989Z,99.90
2022-08-14T06:45:43.395Z,99.90
2022-08-14T06:48:32.691Z,99.90
2022-08-14T06:51:21.235Z,99.90
2022-08-14T06:54:09.961Z,99.90
2022-08-14T06:56:57.514Z,99.90
2022-08-14T06:59:45.284Z,99.90
2022-08-14T07:02:50.398Z,99.90
2022-08-14T07:05:55.967Z,99.90
2022-08-14T07:08:36.095Z,99.90
2022-08-14T07:11:23.680Z,99.90
2022-08-14T07:14:12.739Z,99.90
2022-08-14T07:17:01.892Z,99.90
2022-08-14T07:19:50.604Z,99.90
2022-08-14T07:22:56.020Z,99.90
2022-08-14T07:25:32.690Z,99.90
2022-08-14T07:28:25.512Z,99.90
2022-08-14T07:31:13.895Z,99.90
2022-08-14T07:34:04.142Z,99.90
2022-08-14T07:36:57.914Z,99.90
2022-08-14T07:39:43.977Z,99.90
2022-08-14T07:42:32.471Z,99.90
2022-08-14T07:45:20.465Z,99.90
2022-08-14T07:48:09.660Z,99.90
2022-08-14T07:51:02.985Z,99.90
2022-08-14T07:53:48.171Z,99.90
2022-08-14T07:56:48.312Z,99.90
2022-08-14T07:59:41.308Z,99.90
2022-08-14T08:02:19.583Z,99.90
2022-08-14T08:05:06.165Z,99.90
2022-08-14T08:07:54.843Z,99.90
2022-08-14T08:11:01.714Z,99.90
2022-08-14T08:13:34.774Z,99.90
2022-08-14T08:16:24.444Z,99.90
2022-08-14T08:19:14.009Z,99.90
2022-08-14T08:22:02.386Z,99.90
2022-08-14T08:24:50.338Z,99.90
2022-08-14T08:27:41.887Z,99.90
2022-08-14T08:30:31.980Z,99.90
2022-08-14T08:33:21.799Z,99.90
2022-08-14T08:36:18.644Z,99.90
2022-08-14T08:39:18.457Z,99.90
2022-08-14T08:41:53.841Z,99.90
2022-08-14T08:44:41.249Z,99.90
2022-08-14T08:47:41.379Z,99.90
2022-08-14T08:53:18.431Z,99.90
2022-08-14T08:56:06.043Z,99.90
2022-08-14T08:58:53.962Z,99.90
2022-08-14T09:01:43.038Z,99.90
2022-08-14T09:04:33.378Z,99.90
2022-08-14T09:07:20.421Z,99.90
2022-08-14T09:10:08.757Z,99.90
2022-08-14T09:12:56.217Z,99.90
2022-08-14T09:15:45.787Z,99.90
2022-08-14T09:18:33.077Z,99.80
2022-08-14T09:21:24.289Z,99.80
2022-08-14T09:24:28.555Z,99.30
2022-08-14T09:27:01.314Z,99.40
2022-08-14T09:29:54.000Z,98.40
2022-08-14T09:33:06.041Z,98.00
2022-08-14T09:36:03.364Z,97.50
2022-08-14T09:39:28.765Z,97.70
2022-08-14T09:42:35.867Z,96.20
2022-08-14T09:45:53.115Z,96.30
2022-08-14T09:48:31.399Z,95.00
2022-08-14T09:51:32.980Z,94.90
2022-08-14T09:54:22.562Z,93.50
2022-08-14T09:57:06.638Z,92.90
2022-08-14T09:59:56.268Z,91.70
2022-08-14T10:02:59.086Z,91.20
2022-08-14T10:05:48.417Z,89.10
2022-08-14T10:08:50.906Z,89.10
2022-08-14T10:11:37.953Z,90.10
2022-08-14T10:14:36.031Z,89.40
2022-08-14T10:17:38.341Z,85.80
2022-08-14T10:20:39.349Z,88.90
2022-08-14T10:23:20.194Z,84.40
2022-08-14T10:26:10.004Z,81.20
2022-08-14T10:29:17.840Z,80.40
2022-08-14T10:31:54.410Z,77.10
2022-08-14T10:34:43.386Z,75.00
2022-08-14T10:37:33.906Z,74.40
2022-08-14T10:40:37.907Z,72.30
2022-08-14T10:43:27.676Z,69.90
2022-08-14T10:47:35.894Z,67.70
2022-08-14T10:49:18.814Z,67.10
2022-08-14T10:52:09.323Z,67.80
2022-08-14T10:55:13.317Z,67.00
2022-08-14T10:58:00.633Z,66.60
2022-08-14T11:00:57.249Z,66.10
2022-08-14T11:03:56.071Z,66.40
2022-08-14T11:06:34.440Z,65.10
2022-08-14T11:09:22.459Z,61.80
2022-08-14T11:12:34.595Z,61.20
2022-08-14T11:15:03.152Z,59.70
2022-08-14T11:17:51.667Z,60.30
2022-08-14T11:20:40.235Z,59.30
2022-08-14T11:23:38.101Z,58.40
2022-08-14T11:26:20.423Z,59.40
2022-08-14T11:29:10.829Z,57.40
2022-08-14T11:32:00.137Z,58.20
2022-08-14T11:34:48.092Z,56.80
2022-08-14T11:37:40.627Z,56.90
2022-08-14T11:40:28.768Z,54.50
2022-08-14T11:43:17.458Z,55.30
2022-08-14T11:46:06.526Z,54.20
2022-08-14T11:49:02.800Z,54.60
2022-08-14T11:51:53.896Z,54.20
2022-08-14T11:54:36.175Z,53.30
2022-08-14T11:57:25.687Z,52.30
2022-08-14T12:00:19.517Z,52.10
2022-08-14T12:03:06.297Z,50.50
2022-08-14T12:05:55.468Z,50.40
2022-08-14T12:08:50.954Z,50.30
2022-08-14T12:11:44.154Z,51.10
2022-08-14T12:14:35.157Z,50.30
2022-08-14T12:17:23.902Z,48.70
2022-08-14T12:20:11.497Z,47.30
2022-08-14T12:23:02.176Z,46.80
2022-08-14T12:25:59.474Z,46.80
2022-08-14T12:28:59.648Z,46.90
2022-08-14T12:31:28.531Z,46.50
2022-08-14T12:34:20.015Z,46.10
2022-08-14T12:37:10.650Z,46.40
2022-08-14T12:40:11.023Z,46.00
2022-08-14T12:43:06.302Z,46.10
2022-08-14T12:45:55.687Z,45.00
2022-08-14T12:48:47.078Z,44.70
2022-08-14T12:51:35.879Z,44.50
2022-08-14T12:54:28.548Z,43.60
2022-08-14T12:57:19.901Z,43.80
2022-08-14T13:00:22.869Z,43.50
2022-08-14T13:03:08.177Z,43.70
2022-08-14T13:05:56.727Z,43.50
2022-08-14T13:08:53.241Z,43.50
2022-08-14T13:11:45.707Z,42.60
2022-08-14T13:14:36.269Z,44.00
2022-08-14T13:17:26.882Z,42.10
2022-08-14T13:20:24.493Z,42.90
2022-08-14T13:23:07.292Z,42.50
2022-08-14T13:25:55.732Z,43.10
2022-08-14T13:29:02.353Z,43.20
2022-08-14T13:31:34.490Z,42.90
2022-08-14T13:34:24.645Z,42.80
2022-08-14T13:37:12.227Z,42.00
2022-08-14T13:40:01.458Z,43.30
2022-08-14T13:42:56.772Z,41.90
2022-08-14T13:46:00.602Z,42.10
2022-08-14T13:48:36.388Z,41.20
2022-08-14T13:51:26.794Z,42.10
2022-08-14T13:54:20.057Z,42.90
2022-08-14T13:57:11.472Z,41.50
2022-08-14T14:00:02.942Z,41.80
2022-08-14T14:02:51.360Z,41.60
2022-08-14T14:05:52.962Z,42.60
2022-08-14T14:08:46.355Z,43.00
2022-08-14T14:11:23.686Z,42.20
2022-08-14T14:14:44.832Z,41.10
2022-08-14T14:17:01.801Z,41.30
2022-08-14T14:19:49.452Z,41.30
2022-08-14T14:23:01.781Z,40.90
2022-08-14T14:25:45.849Z,41.10
2022-08-14T14:28:24.584Z,41.50
2022-08-14T14:31:12.737Z,41.20
2022-08-14T14:34:07.325Z,40.90
2022-08-14T14:36:55.719Z,41.10
2022-08-14T14:40:53.138Z,41.50
2022-08-14T14:42:35.401Z,41.50
2022-08-14T14:45:24.551Z,41.80
2022-08-14T14:48:13.730Z,41.50
2022-08-14T14:51:03.008Z,41.80
2022-08-14T14:53:52.627Z,41.70
2022-08-14T14:56:48.073Z,40.60
2022-08-14T14:59:35.935Z,41.40
2022-08-14T15:02:41.358Z,41.50
2022-08-14T15:05:30.444Z,41.50
2022-08-14T15:08:26.813Z,41.70
2022-08-14T15:11:13.421Z,41.50
2022-08-14T15:13:57.653Z,41.40
2022-08-14T15:16:45.111Z,40.80
2022-08-14T15:19:32.779Z,40.70
2022-08-14T15:22:20.700Z,41.20
2022-08-14T15:25:13.343Z,42.40
2022-08-14T15:28:02.696Z,41.30
2022-08-14T15:30:58.903Z,42.10
2022-08-14T15:34:00.950Z,41.80
2022-08-14T15:36:48.632Z,42.40
2022-08-14T15:39:38.488Z,41.20
2022-08-14T15:42:25.267Z,41.90
2022-08-14T15:45:17.913Z,41.80
2022-08-14T15:48:07.910Z,42.20
2022-08-14T15:50:56.811Z,42.90
2022-08-14T15:53:46.789Z,42.00
2022-08-14T15:56:42.860Z,42.20
2022-08-14T15:59:23.040Z,42.60
2022-08-14T16:02:10.457Z,42.30
2022-08-14T16:04:58.975Z,42.80
2022-08-14T16:07:46.726Z,43.40
2022-08-14T16:10:33.956Z,43.10
2022-08-14T16:13:39.529Z,43.00
2022-08-14T16:16:47.829Z,42.90
2022-08-14T16:19:10.686Z,43.00
2022-08-14T16:22:58.274Z,43.40
2022-08-14T16:24:59.817Z,43.20
2022-08-14T16:27:45.876Z,42.90
2022-08-14T16:30:33.519Z,43.20
2022-08-14T16:33:28.012Z,42.80
2022-08-14T16:36:30.098Z,42.70
2022-08-14T16:39:08.216Z,41.80
2022-08-14T16:41:59.101Z,42.00
2022-08-14T16:44:50.508Z,41.90
2022-08-14T16:47:40.065Z,42.30
2022-08-14T16:50:43.191Z,43.10
2022-08-14T16:53:19.218Z,43.40
2022-08-14T16:56:23.453Z,43.60
2022-08-14T16:59:12.108Z,43.50
2022-08-14T17:02:01.434Z,43.50
2022-08-14T17:04:50.199Z,43.20
2022-08-14T17:07:38.888Z,43.50
2022-08-14T17:10:28.303Z,43.70
2022-08-14T17:13:58.009Z,43.60
2022-08-14T17:16:23.976Z,43.30
2022-08-14T17:19:09.974Z,44.00
2022-08-14T17:22:00.601Z,44.40
2022-08-14T17:24:56.935Z,44.70
2022-08-14T17:27:37.791Z,44.60
2022-08-14T17:30:32.436Z,45.20
2022-08-14T17:33:15.932Z,44.60
2022-08-14T17:36:22.573Z,45.00
2022-08-14T17:39:13.453Z,45.30
2022-08-14T17:42:03.561Z,45.10
2022-08-14T17:44:55.056Z,46.00
2022-08-14T17:47:44.050Z,47.10
2022-08-14T17:50:59.943Z,47.40
2022-08-14T17:53:39.198Z,46.10
2022-08-14T17:56:30.851Z,47.40
2022-08-14T17:59:19.790Z,48.40
2022-08-14T18:02:10.161Z,49.00
2022-08-14T18:05:02.805Z,49.00
2022-08-14T18:08:33.201Z,49.40
2022-08-14T18:10:56.106Z,49.60
2022-08-14T18:13:49.709Z,51.30
2022-08-14T18:16:22.386Z,52.80
2022-08-14T18:19:12.091Z,53.80
2022-08-14T18:22:03.894Z,54.30
2022-08-14T18:24:51.406Z,55.10
2022-08-14T18:27:44.382Z,55.90
2022-08-14T18:30:40.604Z,56.40
2022-08-14T18:33:23.166Z,57.00
2022-08-14T18:36:46.273Z,57.90
2022-08-14T18:39:22.771Z,58.60
2022-08-14T18:42:23.515Z,59.20
2022-08-14T18:45:18.901Z,59.70
2022-08-14T18:48:28.533Z,59.60
2022-08-14T18:51:12.842Z,60.40
2022-08-14T18:54:02.304Z,60.40
2022-08-14T18:57:00.866Z,60.70
2022-08-14T18:59:48.690Z,61.60
2022-08-14T19:02:43.472Z,62.30
2022-08-14T19:05:40.389Z,62.70
2022-08-14T19:08:40.651Z,63.00
2022-08-14T19:11:50.328Z,63.70
2022-08-14T19:14:48.475Z,64.20
2022-08-14T19:18:14.996Z,63.90
2022-08-14T19:20:53.334Z,64.20
2022-08-14T19:23:44.044Z,64.50
2022-08-14T19:26:35.606Z,64.80
2022-08-14T19:29:25.563Z,64.90
2022-08-14T19:32:36.987Z,65.10
2022-08-14T19:35:39.743Z,64.70
2022-08-14T19:38:48.269Z,64.40
2022-08-14T19:41:40.508Z,64.30
2022-08-14T19:44:32.037Z,63.20
2022-08-14T19:47:41.460Z,63.60
2022-08-14T19:50:40.483Z,64.10
2022-08-14T19:53:20.802Z,63.70
2022-08-14T19:56:08.506Z,63.60
2022-08-14T19:58:57.569Z,64.30
2022-08-14T20:01:44.708Z,64.60
2022-08-14T20:04:47.576Z,64.30
2022-08-14T20:07:59.403Z,64.40
2022-08-14T20:11:12.722Z,64.60
2022-08-14T20:13:32.617Z,64.30
2022-08-14T20:16:21.236Z,64.30
2022-08-14T20:19:24.730Z,64.70
2022-08-14T20:22:37.329Z,64.90
2022-08-14T20:25:20.726Z,65.50
2022-08-14T20:28:29.052Z,65.30
2022-08-14T20:31:17.766Z,65.00
2022-08-14T20:34:18.593Z,65.10
2022-08-14T20:37:19.818Z,64.80
2022-08-14T20:40:23.383Z,65.60
2022-08-14T20:43:40.880Z,66.20
2022-08-14T20:46:32.275Z,67.00
2022-08-14T20:49:23.647Z,67.40
2022-08-14T20:52:19.876Z,68.40
2022-08-14T20:55:02.300Z,68.00
2022-08-14T20:57:54.781Z,69.00
2022-08-14T21:00:51.829Z,70.90
2022-08-14T21:03:37.538Z,71.70
2022-08-14T21:07:23.012Z,71.70
2022-08-14T21:10:04.566Z,71.50
2022-08-14T21:12:34.221Z,71.70
2022-08-14T21:15:10.253Z,71.90
2022-08-14T21:17:57.728Z,72.10
2022-08-14T21:20:46.419Z,72.10
2022-08-14T21:23:36.467Z,72.50
2022-08-14T21:26:33.354Z,73.20
2022-08-14T21:29:18.040Z,73.60
2022-08-14T21:32:20.300Z,73.10
2022-08-14T21:34:56.433Z,73.40
2022-08-14T21:37:46.040Z,73.50
2022-08-14T21:40:42.146Z,73.50
2022-08-14T21:43:26.329Z,73.20
2022-08-14T21:46:16.016Z,73.60
2022-08-14T21:49:11.388Z,74.00
2022-08-14T21:52:48.843Z,74.40
2022-08-14T21:54:52.082Z,74.60
2022-08-14T21:58:51.082Z,74.40
2022-08-14T22:00:39.615Z,74.90
2022-08-14T22:03:26.330Z,76.70
2022-08-14T22:06:19.510Z,76.40
2022-08-14T22:09:06.812Z,76.70
2022-08-14T22:11:56.659Z,77.80
2022-08-14T22:14:45.281Z,76.10
2022-08-14T22:17:34.386Z,76.10
2022-08-14T22:20:24.996Z,76.50
2022-08-14T22:23:13.381Z,76.60
2022-08-14T22:26:00.654Z,77.10
2022-08-14T22:28:49.507Z,78.90
2022-08-14T22:31:43.902Z,80.50
2022-08-14T22:34:32.090Z,80.50
2022-08-14T22:37:19.500Z,82.10
2022-08-14T22:40:46.145Z,83.80
2022-08-14T22:43:01.258Z,83.20
2022-08-14T22:45:55.512Z,81.80
2022-08-14T22:48:38.980Z,81.90
2022-08-14T22:51:27.541Z,83.70
2022-08-14T22:54:52.680Z,85.10
2022-08-14T22:57:06.341Z,85.90
2022-08-14T22:59:55.296Z,87.80
2022-08-14T23:02:43.554Z,86.60
2022-08-14T23:05:40.072Z,85.50
2022-08-14T23:08:59.358Z,83.80
2022-08-14T23:11:11.413Z,86.30
2022-08-14T23:14:00.953Z,87.60
2022-08-14T23:16:48.614Z,84.60
2022-08-14T23:19:36.105Z,85.00
2022-08-14T23:22:24.239Z,85.80
2022-08-14T23:25:17.773Z,88.80
2022-08-14T23:28:05.310Z,87.70
2022-08-14T23:30:55.260Z,87.60
2022-08-14T23:33:46.020Z,89.60
2022-08-14T23:36:38.031Z,86.50
2022-08-14T23:39:30.397Z,85.70
2022-08-14T23:42:17.981Z,87.10
2022-08-14T23:45:07.374Z,86.40
2022-08-14T23:47:54.520Z,88.10
2022-08-14T23:50:44.438Z,90.20
2022-08-14T23:53:47.944Z,90.50
2022-08-14T23:56:31.906Z,91.00
2022-08-14T23:59:15.952Z,91.50
